createdAt,value
2016-12-06T00:00:10.801Z,0
2016-12-06T00:01:21.132Z,0
2016-12-06T00:02:31.167Z,0
2016-12-06T00:03:41.497Z,0
2016-12-06T00:04:51.848Z,0
2016-12-06T00:06:01.560Z,0
2016-12-06T00:07:11.607Z,0
2016-12-06T00:08:21.923Z,0
2016-12-06T00:09:32.281Z,0
2016-12-06T00:10:42.500Z,0
2016-12-06T00:11:52.787Z,0
2016-12-06T00:13:02.482Z,0
2016-12-06T00:14:12.737Z,0
2016-12-06T00:15:22.707Z,0
2016-12-06T00:16:32.981Z,0
2016-12-06T00:17:42.964Z,0
2016-12-06T00:18:52.931Z,0
2016-12-06T00:20:02.887Z,0
2016-12-06T00:21:12.891Z,0
2016-12-06T00:22:23.153Z,0
2016-12-06T00:23:33.429Z,0
2016-12-06T00:24:43.402Z,0
2016-12-06T00:25:53.669Z,0
2016-12-06T00:27:03.656Z,0
2016-12-06T00:28:14.157Z,0
2016-12-06T00:29:24.419Z,0
2016-12-06T00:30:34.699Z,0
2016-12-06T00:31:44.975Z,0
2016-12-06T00:32:55.252Z,0
2016-12-06T00:34:05.522Z,0
2016-12-06T00:35:15.523Z,0
2016-12-06T00:36:25.784Z,0
2016-12-06T00:37:35.465Z,0
2016-12-06T00:38:45.432Z,0
2016-12-06T00:39:55.405Z,0
2016-12-06T00:41:05.655Z,0
2016-12-06T00:42:15.621Z,0
2016-12-06T00:43:25.583Z,0
2016-12-06T00:44:35.233Z,0
2016-12-06T00:45:44.892Z,0
2016-12-06T00:46:54.849Z,0
2016-12-06T00:48:05.127Z,0
2016-12-06T00:49:15.421Z,0
2016-12-06T00:50:25.374Z,0
2016-12-06T00:51:35.667Z,0
2016-12-06T00:52:45.618Z,0
2016-12-06T00:53:55.604Z,0
2016-12-06T00:55:05.288Z,0
2016-12-06T00:56:15.567Z,0
2016-12-06T00:57:25.530Z,0
2016-12-06T00:58:35.187Z,0
2016-12-06T00:59:45.447Z,0
2016-12-06T01:00:55.461Z,0
2016-12-06T01:02:05.446Z,0
2016-12-06T01:03:15.722Z,0
2016-12-06T01:04:25.065Z,0
2016-12-06T01:05:35.027Z,0
2016-12-06T01:06:45.064Z,0
2016-12-06T01:07:55.385Z,0
2016-12-06T01:09:05.450Z,0
2016-12-06T01:10:17.432Z,0
2016-12-06T01:11:27.190Z,0
2016-12-06T01:12:37.200Z,0
2016-12-06T01:13:47.224Z,0
2016-12-06T01:14:57.572Z,0
2016-12-06T01:16:07.590Z,0
2016-12-06T01:17:17.613Z,0
2016-12-06T01:18:27.965Z,0
2016-12-06T01:19:38.287Z,0
2016-12-06T01:20:48.316Z,0
2016-12-06T01:21:58.648Z,0
2016-12-06T01:23:08.386Z,0
2016-12-06T01:24:18.714Z,0
2016-12-06T01:25:28.426Z,0
2016-12-06T01:26:38.772Z,0
2016-12-06T01:27:49.096Z,0
2016-12-06T01:28:59.124Z,0
2016-12-06T01:30:09.454Z,0
2016-12-06T01:31:19.483Z,0
2016-12-06T01:32:29.820Z,0
2016-12-06T01:33:40.142Z,0
2016-12-06T01:34:50.161Z,0
2016-12-06T01:36:00.184Z,0
2016-12-06T01:37:09.891Z,0
2016-12-06T01:38:19.912Z,0
2016-12-06T01:39:29.339Z,0
2016-12-06T01:40:39.365Z,0
2016-12-06T01:41:48.753Z,0
2016-12-06T01:42:59.076Z,0
2016-12-06T01:44:09.104Z,0
2016-12-06T01:45:19.437Z,0
2016-12-06T01:46:29.462Z,0
2016-12-06T01:47:39.802Z,0
2016-12-06T01:48:50.087Z,0
2016-12-06T01:50:00.360Z,0
2016-12-06T01:51:10.701Z,0
2016-12-06T01:52:20.405Z,0
2016-12-06T01:53:30.743Z,0
2016-12-06T01:54:40.460Z,0
2016-12-06T01:55:50.795Z,0
2016-12-06T01:57:00.845Z,0
2016-12-06T01:58:10.213Z,0
2016-12-06T01:59:20.474Z,0
2016-12-06T02:00:30.794Z,0
2016-12-06T02:01:40.823Z,0
2016-12-06T02:02:51.175Z,0
2016-12-06T02:04:01.497Z,0
2016-12-06T02:05:11.843Z,0
2016-12-06T02:06:22.104Z,0
2016-12-06T02:07:32.452Z,0
2016-12-06T02:08:42.794Z,0
2016-12-06T02:09:53.136Z,0
2016-12-06T02:11:03.453Z,0
2016-12-06T02:12:13.798Z,0
2016-12-06T02:13:24.114Z,0
2016-12-06T02:14:33.814Z,0
2016-12-06T02:15:43.533Z,0
2016-12-06T02:16:53.575Z,0
2016-12-06T02:18:03.906Z,0
2016-12-06T02:19:14.253Z,0
2016-12-06T02:20:24.593Z,0
2016-12-06T02:21:34.295Z,0
2016-12-06T02:22:44.634Z,0
2016-12-06T02:23:54.959Z,0
2016-12-06T02:25:05.015Z,0
2016-12-06T02:26:14.117Z,0
2016-12-06T02:27:24.463Z,0
2016-12-06T02:28:34.789Z,0
2016-12-06T02:29:44.188Z,0
2016-12-06T02:30:54.520Z,0
2016-12-06T02:32:04.529Z,0
2016-12-06T02:33:14.236Z,0
2016-12-06T02:34:24.561Z,0
2016-12-06T02:35:34.641Z,0
2016-12-06T02:36:44.970Z,0
2016-12-06T02:37:54.679Z,0
2016-12-06T02:39:04.698Z,0
2016-12-06T02:40:14.404Z,0
2016-12-06T02:41:24.756Z,0
2016-12-06T02:42:35.077Z,0
2016-12-06T02:43:44.772Z,0
2016-12-06T02:44:54.471Z,0
2016-12-06T02:46:04.809Z,0
2016-12-06T02:47:15.153Z,0
2016-12-06T02:48:25.154Z,0
2016-12-06T02:49:35.169Z,0
2016-12-06T02:50:45.509Z,0
2016-12-06T02:51:55.522Z,0
2016-12-06T02:53:05.535Z,0
2016-12-06T02:54:15.866Z,0
2016-12-06T02:55:25.600Z,0
2016-12-06T02:56:35.937Z,0
2016-12-06T02:57:45.955Z,0
2016-12-06T02:58:55.966Z,0
2016-12-06T03:00:05.982Z,0
2016-12-06T03:01:16.000Z,0
2016-12-06T03:33:07.165Z,0
2016-12-06T03:34:17.181Z,0
2016-12-06T03:35:27.204Z,0
2016-12-06T03:36:36.906Z,0
2016-12-06T03:37:46.928Z,0
2016-12-06T03:38:57.265Z,0
2016-12-06T03:40:07.602Z,0
2016-12-06T03:41:17.333Z,0
2016-12-06T03:42:27.034Z,0
2016-12-06T03:43:37.054Z,0
2016-12-06T03:44:46.753Z,0
2016-12-06T03:45:56.802Z,0
2016-12-06T03:47:07.128Z,0
2016-12-06T03:48:17.197Z,0
2016-12-06T03:49:27.528Z,0
2016-12-06T03:50:37.870Z,0
2016-12-06T03:51:48.262Z,0
2016-12-06T03:52:58.271Z,0
2016-12-06T03:54:08.301Z,0
2016-12-06T03:55:18.017Z,0
2016-12-06T03:56:28.041Z,0
2016-12-06T03:57:38.088Z,0
2016-12-06T03:58:48.424Z,0
2016-12-06T03:59:58.121Z,0
2016-12-06T04:01:08.156Z,0
2016-12-06T04:02:18.170Z,0
2016-12-06T04:03:28.190Z,0
2016-12-06T04:04:38.201Z,0
2016-12-06T04:05:47.911Z,0
2016-12-06T04:06:58.236Z,0
2016-12-06T04:08:08.594Z,0
2016-12-06T04:09:18.643Z,0
2016-12-06T04:10:28.649Z,0
2016-12-06T04:11:38.679Z,0
2016-12-06T04:12:48.997Z,0
2016-12-06T04:13:59.022Z,0
2016-12-06T04:15:09.110Z,0
2016-12-06T04:16:18.830Z,0
2016-12-06T04:17:28.855Z,0
2016-12-06T04:18:38.897Z,0
2016-12-06T04:19:48.915Z,0
2016-12-06T04:20:58.951Z,0
2016-12-06T04:22:08.969Z,0
2016-12-06T04:23:19.290Z,0
2016-12-06T04:24:29.291Z,0
2016-12-06T04:25:39.615Z,0
2016-12-06T04:26:49.950Z,0
2016-12-06T04:27:59.650Z,0
2016-12-06T04:29:09.678Z,0
2016-12-06T04:30:19.698Z,0
2016-12-06T04:31:29.422Z,0
2016-12-06T04:32:39.446Z,0
2016-12-06T04:33:49.464Z,0
2016-12-06T04:34:59.798Z,0
2016-12-06T04:36:09.502Z,0
2016-12-06T04:37:19.238Z,0
2016-12-06T04:38:29.570Z,0
2016-12-06T04:39:39.895Z,0
2016-12-06T04:40:50.238Z,0
2016-12-06T04:42:00.562Z,0
2016-12-06T04:43:10.918Z,0
2016-12-06T04:44:20.646Z,0
2016-12-06T04:45:30.656Z,0
2016-12-06T04:46:40.667Z,0
2016-12-06T04:47:51.227Z,0
2016-12-06T04:49:01.246Z,0
2016-12-06T04:50:11.574Z,0
2016-12-06T04:51:21.280Z,0
2016-12-06T04:52:31.291Z,0
2016-12-06T04:53:41.020Z,0
2016-12-06T04:54:51.384Z,0
2016-12-06T04:56:01.399Z,0
2016-12-06T04:57:11.753Z,0
2016-12-06T04:58:22.104Z,0
2016-12-06T04:59:32.122Z,0
2016-12-06T05:00:42.140Z,0
2016-12-06T05:01:51.535Z,0
2016-12-06T05:03:01.555Z,0
2016-12-06T05:04:11.903Z,0
2016-12-06T05:05:22.246Z,0
2016-12-06T05:06:32.280Z,0
2016-12-06T05:07:42.622Z,0
2016-12-06T05:08:52.629Z,0
2016-12-06T05:10:02.338Z,0
2016-12-06T05:11:12.701Z,0
2016-12-06T05:12:22.739Z,0
2016-12-06T05:13:32.759Z,0
2016-12-06T05:14:42.793Z,0
2016-12-06T05:15:52.818Z,0
2016-12-06T05:17:02.861Z,0
2016-12-06T05:18:12.596Z,0
2016-12-06T05:19:23.165Z,0
2016-12-06T05:20:32.902Z,0
2016-12-06T05:21:43.225Z,0
2016-12-06T05:22:53.245Z,0
2016-12-06T05:24:03.566Z,0
2016-12-06T05:25:13.583Z,0
2016-12-06T05:26:23.894Z,0
2016-12-06T05:27:33.918Z,0
2016-12-06T05:28:44.248Z,0
2016-12-06T05:29:54.588Z,0
2016-12-06T05:31:04.925Z,0
2016-12-06T05:32:14.962Z,0
2016-12-06T05:33:25.354Z,0
2016-12-06T05:34:35.684Z,0
2016-12-06T05:35:45.399Z,0
2016-12-06T05:36:55.719Z,0
2016-12-06T05:38:06.040Z,0
2016-12-06T05:39:16.074Z,0
2016-12-06T05:40:26.395Z,0
2016-12-06T05:41:36.438Z,0
2016-12-06T05:42:46.133Z,0
2016-12-06T05:43:56.456Z,0
2016-12-06T05:45:06.184Z,0
2016-12-06T05:46:16.523Z,0
2016-12-06T05:47:26.256Z,0
2016-12-06T05:48:36.582Z,0
2016-12-06T05:49:46.912Z,0
2016-12-06T05:50:56.935Z,0
2016-12-06T05:52:06.648Z,0
2016-12-06T05:53:16.345Z,0
2016-12-06T05:54:26.362Z,0
2016-12-06T05:55:36.377Z,4
2016-12-06T05:56:46.427Z,4
2016-12-06T05:57:56.747Z,4
2016-12-06T05:59:06.774Z,4
2016-12-06T06:00:16.792Z,0
2016-12-06T06:01:27.117Z,0
2016-12-06T06:02:36.830Z,4
2016-12-06T06:03:47.194Z,4
2016-12-06T06:04:57.530Z,4
2016-12-06T06:06:07.889Z,4
2016-12-06T06:07:17.913Z,4
2016-12-06T06:08:28.251Z,4
2016-12-06T06:09:38.615Z,8
2016-12-06T06:10:48.638Z,12
2016-12-06T06:11:58.347Z,12
2016-12-06T06:13:08.679Z,12
2016-12-06T06:14:18.703Z,16
2016-12-06T06:15:28.762Z,16
2016-12-06T06:16:38.818Z,20
2016-12-06T06:17:48.848Z,24
2016-12-06T06:18:59.183Z,28
2016-12-06T06:20:09.554Z,28
2016-12-06T06:21:19.574Z,36
2016-12-06T06:22:28.966Z,40
2016-12-06T06:23:39.302Z,44
2016-12-06T06:24:49.325Z,48
2016-12-06T06:25:59.356Z,44
2016-12-06T06:27:09.716Z,52
2016-12-06T06:28:20.096Z,64
2016-12-06T06:29:30.448Z,64
2016-12-06T06:30:40.792Z,72
2016-12-06T06:31:50.199Z,84
2016-12-06T06:33:00.533Z,84
2016-12-06T06:34:10.862Z,88
2016-12-06T06:35:21.187Z,96
2016-12-06T06:36:31.206Z,100
2016-12-06T06:37:41.538Z,112
2016-12-06T06:38:52.115Z,116
2016-12-06T06:40:02.440Z,132
2016-12-06T06:41:12.468Z,152
2016-12-06T06:42:21.852Z,160
2016-12-06T06:43:32.185Z,164
2016-12-06T06:44:42.192Z,188
2016-12-06T06:45:51.912Z,212
2016-12-06T06:47:02.257Z,248
2016-12-06T06:48:12.322Z,276
2016-12-06T06:49:22.349Z,308
2016-12-06T06:50:32.374Z,316
2016-12-06T06:51:42.089Z,340
2016-12-06T06:52:52.111Z,368
2016-12-06T06:54:02.139Z,384
2016-12-06T06:55:11.852Z,388
2016-12-06T06:56:21.545Z,388
2016-12-06T06:57:31.887Z,408
2016-12-06T06:58:41.595Z,416
2016-12-06T06:59:51.614Z,440
2016-12-06T07:01:01.050Z,464
2016-12-06T07:02:11.398Z,492
2016-12-06T07:03:21.424Z,568
2016-12-06T07:04:31.768Z,620
2016-12-06T07:05:42.095Z,628
2016-12-06T07:06:52.463Z,656
2016-12-06T07:08:02.823Z,664
2016-12-06T07:09:12.527Z,680
2016-12-06T07:10:22.882Z,716
2016-12-06T07:11:33.222Z,756
2016-12-06T07:12:42.916Z,708
2016-12-06T07:13:53.243Z,728
2016-12-06T07:15:03.265Z,772
2016-12-06T07:16:13.633Z,804
2016-12-06T07:17:23.692Z,908
2016-12-06T07:18:33.396Z,1036
2016-12-06T07:19:43.419Z,1092
2016-12-06T07:20:53.135Z,1176
2016-12-06T07:22:03.457Z,1280
2016-12-06T07:23:13.180Z,1232
2016-12-06T07:24:23.195Z,1228
2016-12-06T07:25:33.198Z,1176
2016-12-06T07:26:42.907Z,1132
2016-12-06T07:27:53.248Z,1088
2016-12-06T07:29:03.591Z,1068
2016-12-06T07:30:13.630Z,1136
2016-12-06T07:31:23.953Z,1204
2016-12-06T07:32:34.306Z,1160
2016-12-06T07:33:44.712Z,1108
2016-12-06T07:34:55.059Z,1092
2016-12-06T07:36:04.462Z,1208
2016-12-06T07:37:14.824Z,1240
2016-12-06T07:38:24.539Z,1148
2016-12-06T07:39:34.259Z,1100
2016-12-06T07:40:44.519Z,1140
2016-12-06T07:41:54.536Z,1200
2016-12-06T07:43:04.557Z,1152
2016-12-06T07:44:14.271Z,1144
2016-12-06T07:45:24.006Z,1228
2016-12-06T07:46:34.349Z,1344
2016-12-06T07:47:44.671Z,1416
2016-12-06T07:48:54.401Z,1572
2016-12-06T07:50:04.423Z,1600
2016-12-06T07:51:14.455Z,1552
2016-12-06T07:52:24.791Z,1416
2016-12-06T07:53:34.842Z,1176
2016-12-06T07:54:44.862Z,1096
2016-12-06T07:55:55.208Z,1088
2016-12-06T07:57:04.919Z,1080
2016-12-06T07:58:14.663Z,1108
2016-12-06T07:59:25.013Z,1132
2016-12-06T08:00:34.712Z,1200
2016-12-06T08:01:44.741Z,1316
2016-12-06T08:02:54.752Z,1192
2016-12-06T08:04:04.497Z,1092
2016-12-06T08:05:14.865Z,1104
2016-12-06T08:06:25.197Z,1056
2016-12-06T08:07:35.217Z,1084
2016-12-06T08:08:45.230Z,1108
2016-12-06T08:09:55.577Z,1088
2016-12-06T08:11:05.903Z,1092
2016-12-06T08:12:16.265Z,1124
2016-12-06T08:13:26.316Z,1136
2016-12-06T08:14:36.358Z,1144
2016-12-06T08:15:46.376Z,1192
2016-12-06T08:16:56.410Z,1256
2016-12-06T08:18:06.743Z,1280
2016-12-06T08:19:16.786Z,1268
2016-12-06T08:20:27.132Z,1336
2016-12-06T08:21:37.146Z,1444
2016-12-06T08:22:47.179Z,1516
2016-12-06T08:23:56.903Z,1588
2016-12-06T08:25:07.264Z,1876
2016-12-06T08:26:16.981Z,1864
2016-12-06T08:27:27.006Z,1912
2016-12-06T08:28:37.327Z,1796
2016-12-06T08:29:47.349Z,1500
2016-12-06T08:30:57.442Z,1308
2016-12-06T08:32:07.780Z,1456
2016-12-06T08:33:18.140Z,1764
2016-12-06T08:34:28.185Z,1792
2016-12-06T08:35:38.531Z,1596
2016-12-06T08:36:48.904Z,1536
2016-12-06T08:37:59.254Z,1476
2016-12-06T08:39:08.958Z,1420
2016-12-06T08:40:19.293Z,1432
2016-12-06T08:41:29.611Z,1568
2016-12-06T08:42:39.939Z,2072
2016-12-06T08:43:50.274Z,2512
2016-12-06T08:45:00.337Z,2424
2016-12-06T08:46:10.373Z,2152
2016-12-06T08:47:20.701Z,2452
2016-12-06T08:48:30.737Z,2576
2016-12-06T08:49:40.748Z,2792
2016-12-06T08:50:51.074Z,2568
2016-12-06T08:52:00.781Z,2528
2016-12-06T08:53:11.111Z,2380
2016-12-06T08:54:21.469Z,1908
2016-12-06T08:55:31.496Z,1660
2016-12-06T08:56:42.064Z,1692
2016-12-06T08:57:52.392Z,1708
2016-12-06T08:59:02.718Z,1480
2016-12-06T09:00:13.069Z,1356
2016-12-06T09:01:23.408Z,1300
2016-12-06T09:02:33.462Z,1212
2016-12-06T09:03:43.164Z,1176
2016-12-06T09:04:52.901Z,1220
2016-12-06T09:06:03.253Z,1320
2016-12-06T09:07:13.576Z,1544
2016-12-06T09:08:23.286Z,1860
2016-12-06T09:09:33.007Z,1960
2016-12-06T09:10:42.720Z,2196
2016-12-06T09:11:52.436Z,1988
2016-12-06T09:13:02.792Z,1956
2016-12-06T09:14:12.534Z,2448
2016-12-06T09:15:22.881Z,3268
2016-12-06T09:16:33.207Z,4448
2016-12-06T09:17:43.543Z,6132
2016-12-06T09:18:53.890Z,6472
2016-12-06T09:20:03.929Z,6392
2016-12-06T09:21:14.251Z,6420
2016-12-06T09:22:24.285Z,6352
2016-12-06T09:23:34.646Z,6360
2016-12-06T09:24:44.672Z,6392
2016-12-06T09:25:54.705Z,6388
2016-12-06T09:27:05.060Z,6468
2016-12-06T09:28:15.429Z,6352
2016-12-06T09:29:25.159Z,6244
2016-12-06T09:30:35.515Z,6568
2016-12-06T09:31:45.854Z,6228
2016-12-06T09:32:56.192Z,6512
2016-12-06T09:34:06.539Z,6596
2016-12-06T09:35:15.944Z,6436
2016-12-06T09:36:25.981Z,6316
2016-12-06T09:37:35.997Z,6256
2016-12-06T09:38:46.341Z,6136
2016-12-06T09:39:56.682Z,5588
2016-12-06T09:41:06.757Z,6516
2016-12-06T09:42:17.338Z,6580
2016-12-06T09:43:27.678Z,5864
2016-12-06T09:44:37.699Z,6408
2016-12-06T09:45:47.490Z,6000
2016-12-06T09:46:57.528Z,5840
2016-12-06T09:48:07.551Z,6172
2016-12-06T09:49:17.562Z,5812
2016-12-06T09:50:26.972Z,5972
2016-12-06T09:51:37.329Z,5280
2016-12-06T09:52:47.666Z,5512
2016-12-06T09:53:58.238Z,6032
2016-12-06T09:55:07.969Z,5592
2016-12-06T09:56:17.680Z,6944
2016-12-06T09:57:27.997Z,6312
2016-12-06T09:58:38.329Z,5556
2016-12-06T09:59:48.655Z,6200
2016-12-06T10:00:58.423Z,6216
2016-12-06T10:02:08.766Z,7104
2016-12-06T10:03:19.088Z,7324
2016-12-06T10:04:29.418Z,7316
2016-12-06T10:05:39.464Z,5952
2016-12-06T10:06:49.176Z,5812
2016-12-06T10:07:59.766Z,5228
2016-12-06T10:09:09.781Z,4988
2016-12-06T10:10:19.818Z,5196
2016-12-06T10:11:29.844Z,5160
2016-12-06T10:12:39.861Z,5020
2016-12-06T10:13:49.882Z,5292
2016-12-06T10:15:00.218Z,4940
2016-12-06T10:16:10.714Z,5312
2016-12-06T10:17:20.466Z,5468
2016-12-06T10:18:30.172Z,5220
2016-12-06T10:19:39.882Z,4636
2016-12-06T10:20:50.233Z,4288
2016-12-06T10:22:00.273Z,4356
2016-12-06T10:23:10.649Z,4516
2016-12-06T10:24:20.990Z,4452
2016-12-06T10:25:31.015Z,4316
2016-12-06T10:26:41.052Z,3904
2016-12-06T10:27:51.412Z,3572
2016-12-06T10:29:01.819Z,3376
2016-12-06T10:30:11.625Z,3240
2016-12-06T10:31:22.011Z,3236
2016-12-06T10:32:32.056Z,3472
2016-12-06T10:33:42.099Z,3180
2016-12-06T10:34:52.159Z,3148
2016-12-06T10:36:02.515Z,3240
2016-12-06T10:37:12.244Z,3232
2016-12-06T10:38:22.572Z,3112
2016-12-06T10:39:32.925Z,3164
2016-12-06T10:40:43.267Z,3200
2016-12-06T10:41:53.299Z,3252
2016-12-06T10:43:03.673Z,3184
2016-12-06T10:44:13.144Z,3248
2016-12-06T10:45:23.177Z,3328
2016-12-06T10:46:32.898Z,3232
2016-12-06T10:47:42.921Z,3208
2016-12-06T10:48:52.635Z,3296
2016-12-06T10:50:02.333Z,3472
2016-12-06T10:51:12.077Z,3412
2016-12-06T10:52:22.412Z,3468
2016-12-06T10:53:32.723Z,3480
2016-12-06T10:54:43.033Z,3444
2016-12-06T10:55:53.340Z,3464
2016-12-06T10:57:03.015Z,3432
2016-12-06T10:58:13.003Z,3236
2016-12-06T10:59:23.016Z,3236
2016-12-06T11:00:33.065Z,3252
2016-12-06T11:01:43.063Z,3516
2016-12-06T11:02:53.479Z,3660
2016-12-06T11:04:03.196Z,3516
2016-12-06T11:05:13.512Z,3696
2016-12-06T11:06:23.555Z,3752
2016-12-06T11:07:33.565Z,3612
2016-12-06T11:08:44.032Z,3628
2016-12-06T11:09:54.348Z,3672
2016-12-06T11:11:04.705Z,3884
2016-12-06T11:12:15.027Z,3956
2016-12-06T11:13:25.345Z,3908
2016-12-06T11:14:35.679Z,3880
2016-12-06T11:15:46.026Z,3688
2016-12-06T11:16:56.047Z,3728
2016-12-06T11:18:06.075Z,3444
2016-12-06T11:19:16.427Z,3216
2016-12-06T11:20:26.767Z,3100
2016-12-06T11:21:36.788Z,3840
2016-12-06T11:22:46.814Z,3296
2016-12-06T11:23:56.824Z,3456
2016-12-06T11:25:06.847Z,4188
2016-12-06T11:26:16.867Z,6284
2016-12-06T11:27:27.198Z,4940
2016-12-06T11:28:37.535Z,4264
2016-12-06T11:29:47.242Z,4300
2016-12-06T11:30:57.612Z,5844
2016-12-06T11:32:06.990Z,7764
2016-12-06T11:33:16.993Z,6936
2016-12-06T11:34:27.000Z,6892
2016-12-06T11:35:37.020Z,7552
2016-12-06T11:36:46.826Z,7276
2016-12-06T11:37:57.166Z,7180
2016-12-06T11:39:07.219Z,6620
2016-12-06T11:40:17.539Z,4356
2016-12-06T11:41:27.851Z,7116
2016-12-06T11:42:37.901Z,6672
2016-12-06T11:43:47.902Z,6784
2016-12-06T11:44:57.904Z,6756
2016-12-06T11:46:08.213Z,5008
2016-12-06T11:47:18.242Z,6088
2016-12-06T11:48:28.248Z,6852
2016-12-06T11:49:38.002Z,6084
2016-12-06T11:50:48.007Z,4396
2016-12-06T11:51:58.317Z,6760
2016-12-06T11:53:08.642Z,5620
2016-12-06T11:54:18.679Z,4144
2016-12-06T11:55:28.721Z,6132
2016-12-06T11:56:38.724Z,3376
2016-12-06T11:57:48.736Z,3260
2016-12-06T11:58:58.757Z,3436
2016-12-06T12:00:08.867Z,3128
2016-12-06T12:01:19.223Z,3212
2016-12-06T12:02:29.549Z,3560
2016-12-06T12:03:39.887Z,5364
2016-12-06T12:04:50.198Z,6468
2016-12-06T12:06:00.527Z,3580
2016-12-06T12:07:10.861Z,4304
2016-12-06T12:08:20.900Z,3524
2016-12-06T12:09:31.254Z,3824
2016-12-06T12:10:40.955Z,3260
2016-12-06T12:11:50.790Z,7888
2016-12-06T12:13:01.111Z,2932
2016-12-06T12:14:10.811Z,3204
2016-12-06T12:15:20.591Z,4600
2016-12-06T12:16:31.168Z,3104
2016-12-06T12:17:41.233Z,3004
2016-12-06T12:18:51.282Z,3076
2016-12-06T12:20:01.668Z,2940
2016-12-06T12:21:11.689Z,3196
2016-12-06T12:22:21.998Z,3184
2016-12-06T12:23:31.858Z,3152
2016-12-06T12:24:41.552Z,3152
2016-12-06T12:25:51.987Z,3440
2016-12-06T12:27:02.317Z,3596
2016-12-06T12:28:12.057Z,3560
2016-12-06T12:29:22.075Z,3800
2016-12-06T12:30:31.801Z,3844
2016-12-06T12:31:41.907Z,3844
2016-12-06T12:32:52.249Z,3780
2016-12-06T12:34:02.270Z,3840
2016-12-06T12:35:12.061Z,4276
2016-12-06T12:36:22.090Z,3820
2016-12-06T12:37:32.104Z,5992
2016-12-06T12:38:42.455Z,4440
2016-12-06T12:39:52.500Z,6796
2016-12-06T12:41:02.868Z,7224
2016-12-06T12:42:12.887Z,7700
2016-12-06T12:43:22.620Z,7328
2016-12-06T12:44:32.360Z,7340
2016-12-06T12:45:42.724Z,7320
2016-12-06T12:46:52.737Z,6568
2016-12-06T12:48:03.084Z,6316
2016-12-06T12:49:13.117Z,6204
2016-12-06T12:50:23.448Z,6028
2016-12-06T12:51:33.790Z,5804
2016-12-06T12:52:43.810Z,5632
2016-12-06T12:53:54.151Z,5780
2016-12-06T12:55:03.977Z,5596
2016-12-06T12:56:13.994Z,5524
2016-12-06T12:57:23.699Z,5552
2016-12-06T12:58:33.715Z,5380
2016-12-06T12:59:43.808Z,5376
2016-12-06T13:00:54.158Z,5184
2016-12-06T13:02:03.846Z,4960
2016-12-06T13:03:13.849Z,4832
2016-12-06T13:04:24.158Z,4796
2016-12-06T13:05:34.608Z,4760
2016-12-06T13:06:44.311Z,4600
2016-12-06T13:07:54.019Z,4528
2016-12-06T13:09:04.345Z,4408
2016-12-06T13:10:14.690Z,4424
2016-12-06T13:11:25.028Z,4348
2016-12-06T13:12:35.367Z,4180
2016-12-06T13:13:45.392Z,4104
2016-12-06T13:14:55.733Z,4148
2016-12-06T13:16:05.140Z,4228
2016-12-06T13:17:15.176Z,4084
2016-12-06T13:18:25.555Z,2932
2016-12-06T13:19:35.278Z,3940
2016-12-06T13:20:45.303Z,4132
2016-12-06T13:21:55.723Z,4132
2016-12-06T13:23:05.778Z,4100
2016-12-06T13:24:15.490Z,4092
2016-12-06T13:25:25.857Z,4064
2016-12-06T13:26:35.901Z,4036
2016-12-06T13:27:45.615Z,3948
2016-12-06T13:28:55.950Z,3856
2016-12-06T13:30:05.691Z,3908
2016-12-06T13:31:16.041Z,3556
2016-12-06T13:32:26.413Z,3656
2016-12-06T13:33:36.453Z,3668
2016-12-06T13:34:46.506Z,3556
2016-12-06T13:35:56.221Z,3448
2016-12-06T13:37:06.560Z,3488
2016-12-06T13:38:15.974Z,3404
2016-12-06T13:39:26.325Z,3388
2016-12-06T13:40:36.064Z,3348
2016-12-06T13:41:46.416Z,3288
2016-12-06T13:42:56.753Z,3212
2016-12-06T13:44:06.770Z,3072
2016-12-06T13:45:16.788Z,3012
2016-12-06T13:46:26.513Z,2916
2016-12-06T13:47:36.545Z,2964
2016-12-06T13:48:46.925Z,2948
2016-12-06T13:49:57.287Z,2844
2016-12-06T13:51:07.317Z,2808
2016-12-06T13:52:17.038Z,2764
2016-12-06T13:53:27.374Z,2700
2016-12-06T13:54:37.728Z,2664
2016-12-06T13:55:48.105Z,2556
2016-12-06T13:56:58.374Z,2480
2016-12-06T13:58:08.741Z,2440
2016-12-06T13:59:18.767Z,2364
2016-12-06T14:00:29.104Z,2308
2016-12-06T14:01:39.445Z,2264
2016-12-06T14:02:49.817Z,2212
2016-12-06T14:03:59.860Z,2152
2016-12-06T14:05:09.886Z,2064
2016-12-06T14:06:19.926Z,2028
2016-12-06T14:07:29.984Z,1976
2016-12-06T14:08:40.350Z,1892
2016-12-06T14:09:50.401Z,1820
2016-12-06T14:11:00.758Z,1740
2016-12-06T14:12:10.789Z,1652
2016-12-06T14:13:20.815Z,1556
2016-12-06T14:14:31.160Z,1492
2016-12-06T14:15:40.557Z,1424
2016-12-06T14:16:50.586Z,1364
2016-12-06T14:18:00.604Z,1312
2016-12-06T14:19:10.943Z,1256
2016-12-06T14:20:21.263Z,1204
2016-12-06T14:21:31.289Z,1156
2016-12-06T14:22:40.996Z,1120
2016-12-06T14:23:51.052Z,1080
2016-12-06T14:25:01.101Z,1044
2016-12-06T14:26:11.493Z,1004
2016-12-06T14:27:21.524Z,964
2016-12-06T14:28:31.562Z,924
2016-12-06T14:29:41.586Z,888
2016-12-06T14:30:51.617Z,856
2016-12-06T14:32:01.943Z,820
2016-12-06T14:33:12.282Z,792
2016-12-06T14:34:22.621Z,756
2016-12-06T14:35:32.975Z,728
2016-12-06T14:36:43.019Z,700
2016-12-06T14:37:52.686Z,668
2016-12-06T14:39:03.062Z,640
2016-12-06T14:40:13.410Z,608
2016-12-06T14:41:23.438Z,576
2016-12-06T14:42:33.455Z,544
2016-12-06T14:43:43.491Z,520
2016-12-06T14:44:53.837Z,488
2016-12-06T14:46:04.205Z,460
2016-12-06T14:47:13.937Z,432
2016-12-06T14:48:24.288Z,404
2016-12-06T14:49:34.052Z,380
2016-12-06T14:50:43.472Z,352
2016-12-06T14:51:53.822Z,324
2016-12-06T14:53:04.170Z,300
2016-12-06T14:54:14.201Z,280
2016-12-06T14:55:24.224Z,256
2016-12-06T14:56:34.298Z,236
2016-12-06T14:57:44.321Z,220
2016-12-06T14:58:54.669Z,196
2016-12-06T15:00:04.723Z,180
2016-12-06T15:01:14.778Z,164
2016-12-06T15:02:25.119Z,144
2016-12-06T15:03:35.470Z,132
2016-12-06T15:04:45.503Z,116
2016-12-06T15:05:55.529Z,104
2016-12-06T15:07:05.595Z,92
2016-12-06T15:08:15.642Z,80
2016-12-06T15:09:25.978Z,68
2016-12-06T15:10:35.722Z,64
2016-12-06T15:11:46.111Z,52
2016-12-06T15:12:56.138Z,44
2016-12-06T15:14:06.505Z,40
2016-12-06T15:15:16.539Z,36
2016-12-06T15:16:26.303Z,28
2016-12-06T15:17:36.630Z,24
2016-12-06T15:18:46.972Z,20
2016-12-06T15:19:57.307Z,16
2016-12-06T15:21:07.657Z,12
2016-12-06T15:22:18.018Z,12
2016-12-06T15:23:28.043Z,8
2016-12-06T15:24:38.077Z,8
2016-12-06T15:25:48.131Z,4
2016-12-06T15:26:58.470Z,4
2016-12-06T15:28:08.546Z,4
2016-12-06T15:29:18.650Z,4
2016-12-06T15:30:28.096Z,4
2016-12-06T15:31:38.451Z,4
2016-12-06T15:32:48.182Z,4
2016-12-06T15:33:58.186Z,0
2016-12-06T15:35:08.522Z,0
2016-12-06T15:36:18.545Z,4
2016-12-06T15:37:28.573Z,4
2016-12-06T15:38:38.391Z,4
2016-12-06T15:39:48.723Z,0
2016-12-06T15:40:59.076Z,0
2016-12-06T15:42:09.674Z,0
2016-12-06T15:43:19.710Z,0
2016-12-06T15:44:30.066Z,0
2016-12-06T15:45:39.818Z,0
2016-12-06T15:46:50.158Z,0
2016-12-06T15:47:59.861Z,0
2016-12-06T15:49:10.190Z,0
2016-12-06T15:50:20.228Z,0
2016-12-06T15:51:30.500Z,0
2016-12-06T15:52:40.825Z,0
2016-12-06T15:53:50.872Z,0
2016-12-06T15:55:01.236Z,0
2016-12-06T15:56:11.259Z,0
2016-12-06T15:57:20.991Z,0
2016-12-06T15:58:31.013Z,0
2016-12-06T15:59:41.069Z,0
2016-12-06T16:00:51.396Z,0
2016-12-06T16:02:01.441Z,0
2016-12-06T16:03:11.494Z,0
2016-12-06T16:04:21.822Z,0
2016-12-06T16:05:31.857Z,0
2016-12-06T16:06:41.892Z,0
2016-12-06T16:07:51.920Z,0
2016-12-06T16:09:02.257Z,0
2016-12-06T16:10:11.980Z,0
2016-12-06T16:11:22.344Z,0
2016-12-06T16:12:32.375Z,0
2016-12-06T16:13:42.106Z,0
2016-12-06T16:14:52.119Z,0
2016-12-06T16:16:02.167Z,0
2016-12-06T16:17:12.515Z,0
2016-12-06T16:18:22.568Z,0
2016-12-06T16:19:32.615Z,0
2016-12-06T16:20:42.971Z,0
2016-12-06T16:21:53.315Z,0
2016-12-06T16:23:03.631Z,0
2016-12-06T16:24:13.989Z,0
2016-12-06T16:25:24.342Z,0
2016-12-06T16:26:34.068Z,0
2016-12-06T16:27:44.454Z,0
2016-12-06T16:28:54.808Z,0
2016-12-06T16:30:04.838Z,0
2016-12-06T16:31:14.877Z,0
2016-12-06T16:32:24.915Z,0
2016-12-06T16:33:35.251Z,0
2016-12-06T16:34:44.676Z,0
2016-12-06T16:35:55.026Z,0
2016-12-06T16:37:05.101Z,0
2016-12-06T16:38:15.428Z,0
2016-12-06T16:39:25.140Z,0
2016-12-06T16:40:35.475Z,0
2016-12-06T16:41:45.207Z,0
2016-12-06T16:42:56.077Z,0
2016-12-06T16:44:07.844Z,0
2016-12-06T16:45:20.288Z,0
2016-12-06T16:46:32.715Z,0
2016-12-06T16:47:44.718Z,0
2016-12-06T16:48:56.837Z,0
2016-12-06T16:50:08.653Z,0
2016-12-06T16:51:21.432Z,0
2016-12-06T16:52:34.922Z,0